Hlavní strana
METAR-TAF:

METAR-TAF

Letiště :

Caracas, Venezuela

zeměpisná šířka: 10-36N, zeměpisná délka: 066-59W, výška: 43 m

Aktuální stav počasí

Zpráva byla vytvořena před 18 minutami, v 19:00 UTC
Severovýchodní vítr 5 kt
Teplota 29°C
Vlhkost vzduchu 66%
Tlak 1008 hPa
Oblačno až skoro zataženo ve výšce 1600 ft

METAR: SVMI 231900Z 05005KT 999 BKN016 29/22 Q1008

Čas: 15:18 (19:18 UTC)

Předpověď počasí

Zpráva byla vytvořena před 3 hodinami a 18 minutami, v 16:00 UTC
Předpověď platná od 23 v 18 UTC do 24 v 18 UTC
Východoseverovýchodní vítr 10 kt
Viditelnost 10 km a více
Polojasno ve výšce 1600 ft
Oblačno až skoro zataženo ve výšce 10000 ft
Změna
od 23 v 18 UTC do 23 v 22 UTC
Východní vítr 7 kt
Viditelnost: 9000 m
Oblačno až skoro zataženo ve výšce 1600 ft
v blízkosti, mrholení

TAF: SVMI 231600Z 2318/2418 07010KT 9999 SCT016 BKN100 TX32/18Z TN24/09Z BECMG 2318/2322 09007KT 9000 VCDZ BKN016

Stav a předpovědi počasí z více než 4 000 letišť (zprávy METAR a TAF).

Červené a žluté tečky na mapě představují dostupné meteorologické stanice.

Když kurzor umístíte na tečku, zobrazí se název stanice.

Pak kliknutím zobrazíte stav a předpověď počasí.

Chcete-li změnit mapu, kliknutím na zelené tlačítko se znaménkem +mapu přiblížíte, kliknutím na zelené tlačítko se znaménkem – mapu oddálíte a kliknutím na zelené šipky přejdete na sousední mapy.


METAR-TAF: